Time;durP1;ratioP1;P1;durP2;ratioP2;P2;SDS_P1;SDS_P2;PMS_P1;PMS_P2;Temp;Humidity;BMP_temperature;BMP_pressure;BME280_temperature;BME280_humidity;BME280_pressure;Samples;Min_cycle;Max_cycle;Signal;HPM_P1;HPM_P2
2022/10/29 00:02:19;;;;;;;8.38;6.93;;;23.30;53.40;;;;;;4979443;28;20055;-63
2022/10/29 00:04:46;;;;;;;8.77;7.07;;;23.30;53.40;;;;;;4978525;28;20054;-60
2022/10/29 00:07:13;;;;;;;9.35;7.65;;;23.30;53.90;;;;;;4978736;28;20050;-62
2022/10/29 00:09:40;;;;;;;8.57;7.10;;;23.30;53.40;;;;;;4978450;28;20051;-62
2022/10/29 00:12:08;;;;;;;8.48;7.00;;;23.30;53.40;;;;;;4979545;28;20050;-62
2022/10/29 00:14:38;;;;;;;9.25;7.20;;;23.30;53.40;;;;;;4977218;28;20057;-62
2022/10/29 00:17:05;;;;;;;8.85;7.05;;;23.30;53.40;;;;;;4978436;28;20051;-63
2022/10/29 00:19:32;;;;;;;8.65;7.20;;;23.30;53.40;;;;;;4978303;28;20054;-62
2022/10/29 00:21:59;;;;;;;7.53;6.70;;;23.30;53.40;;;;;;4979164;28;20066;-62
2022/10/29 00:24:26;;;;;;;10.20;6.90;;;23.30;53.40;;;;;;4978208;28;20065;-63
2022/10/29 00:26:53;;;;;;;9.02;7.20;;;23.30;53.40;;;;;;4978433;28;20134;-62
2022/10/29 00:29:20;;;;;;;9.10;6.78;;;23.30;53.40;;;;;;4978295;28;20053;-63
2022/10/29 00:31:49;;;;;;;7.47;6.63;;;23.30;53.40;;;;;;4978186;28;20154;-62
2022/10/29 00:34:16;;;;;;;7.03;6.28;;;23.30;53.50;;;;;;4978113;28;20138;-62
2022/10/29 00:36:44;;;;;;;9.45;6.90;;;23.30;53.40;;;;;;4978476;28;20047;-62
2022/10/29 00:39:15;;;;;;;7.78;6.80;;;23.30;53.40;;;;;;4978235;28;20509;-63
2022/10/29 00:41:42;;;;;;;8.82;7.50;;;23.30;53.50;;;;;;4977217;28;20050;-62
2022/10/29 00:44:28;;;;;;;7.57;6.40;;;23.30;53.50;;;;;;4977933;28;20098;-62
2022/10/29 00:47:33;;;;;;;10.38;7.20;;;23.30;53.50;;;;;;4978032;28;20050;-63
2022/10/29 00:50:06;;;;;;;8.45;6.82;;;23.30;53.50;;;;;;4976756;28;20062;-62
2022/10/29 00:52:37;;;;;;;7.95;6.47;;;23.30;53.50;;;;;;4977823;28;20061;-62
2022/10/29 00:55:07;;;;;;;7.47;6.63;;;23.30;53.50;;;;;;4976646;28;20051;-62
2022/10/29 00:57:40;;;;;;;8.10;6.88;;;23.30;53.40;;;;;;4977026;28;20055;-62
2022/10/29 01:00:08;;;;;;;8.57;7.43;;;23.30;53.40;;;;;;4977737;28;20105;-62
2022/10/29 01:02:36;;;;;;;8.07;6.85;;;23.30;53.40;;;;;;4978190;28;20057;-61
2022/10/29 01:05:05;;;;;;;8.90;6.60;;;23.30;53.40;;;;;;4977929;28;20051;-62
2022/10/29 01:07:33;;;;;;;11.38;7.38;;;23.30;53.40;;;;;;4978235;28;20408;-62
2022/10/29 01:10:00;;;;;;;9.68;7.43;;;23.30;53.40;;;;;;4977968;28;20380;-62
2022/10/29 01:12:58;;;;;;;8.50;6.65;;;23.30;53.30;;;;;;4977933;28;20089;-62
2022/10/29 01:15:39;;;;;;;8.15;6.90;;;23.30;53.30;;;;;;4977846;28;20065;-62
2022/10/29 01:18:23;;;;;;;8.20;6.70;;;23.30;53.80;;;;;;4976444;28;20051;-62
2022/10/29 01:21:22;;;;;;;8.75;6.75;;;23.30;53.30;;;;;;4976599;28;20045;-62
2022/10/29 01:24:26;;;;;;;8.48;6.63;;;23.30;53.20;;;;;;4976237;28;20050;-62
2022/10/29 01:27:33;;;;;;;7.50;6.63;;;23.30;53.20;;;;;;4977983;28;20057;-62
2022/10/29 01:30:12;;;;;;;7.85;6.35;;;23.30;53.20;;;;;;4976846;28;20054;-63
2022/10/29 01:32:59;;;;;;;7.57;6.30;;;23.30;53.20;;;;;;4977545;28;20043;-62
2022/10/29 01:35:57;;;;;;;6.95;6.25;;;23.30;53.20;;;;;;4977692;28;20053;-63
2022/10/29 01:38:53;;;;;;;8.00;6.63;;;23.30;53.20;;;;;;4977874;28;20452;-63
2022/10/29 01:41:46;;;;;;;9.20;6.88;;;23.30;53.20;;;;;;4977759;28;20061;-63
2022/10/29 01:44:44;;;;;;;7.63;6.38;;;23.30;53.20;;;;;;4977385;28;20054;-62
2022/10/29 01:47:16;;;;;;;8.55;6.75;;;23.30;53.20;;;;;;4976068;28;20047;-59
2022/10/29 01:49:50;;;;;;;8.93;7.28;;;23.30;53.20;;;;;;4977420;28;20061;-62
2022/10/29 01:52:20;;;;;;;8.10;6.47;;;23.30;53.20;;;;;;4978699;28;20595;-62
2022/10/29 01:54:47;;;;;;;;;;;23.30;53.20;;;;;;4981345;28;20061;-62
2022/10/29 01:57:33;;;;;;;8.07;6.60;;;23.30;53.20;;;;;;4980993;28;19926;-62
2022/10/29 02:00:09;;;;;;;8.95;6.63;;;23.30;53.20;;;;;;4981475;28;20046;-62
2022/10/29 02:03:13;;;;;;;8.88;7.00;;;23.30;53.20;;;;;;4980647;28;20047;-62
2022/10/29 02:06:19;;;;;;;9.02;6.93;;;23.30;53.20;;;;;;4980690;28;20051;-62
2022/10/29 02:09:04;;;;;;;8.50;6.63;;;23.30;53.30;;;;;;4979758;28;20053;-62
2022/10/29 02:11:43;;;;;;;8.30;7.28;;;23.30;53.20;;;;;;4979608;28;20055;-62
2022/10/29 02:14:24;;;;;;;7.97;6.70;;;23.30;53.20;;;;;;4980416;28;20054;-62
2022/10/29 02:16:53;;;;;;;7.40;6.20;;;23.30;53.20;;;;;;4980805;28;20047;-62
2022/10/29 02:19:20;;;;;;;7.45;5.97;;;23.30;53.80;;;;;;4979182;28;20062;-63
2022/10/29 02:21:49;;;;;;;7.78;6.93;;;23.30;53.20;;;;;;4980515;28;20047;-62
2022/10/29 02:24:16;;;;;;;8.05;6.07;;;23.30;53.20;;;;;;4980234;28;20050;-62
2022/10/29 02:26:43;;;;;;;8.18;6.68;;;23.30;53.20;;;;;;4980524;28;20062;-62
2022/10/29 02:29:10;;;;;;;8.90;6.38;;;23.30;53.20;;;;;;4979253;28;20050;-62
2022/10/29 02:31:37;;;;;;;8.45;6.78;;;23.30;53.20;;;;;;4980218;28;20419;-62
2022/10/29 02:34:04;;;;;;;6.70;6.00;;;23.30;53.20;;;;;;4980228;28;20050;-62
2022/10/29 02:36:31;;;;;;;6.80;5.97;;;23.30;53.20;;;;;;4980196;28;20061;-63
2022/10/29 02:38:58;;;;;;;7.45;6.22;;;23.30;53.30;;;;;;4979009;28;20054;-63
2022/10/29 02:41:25;;;;;;;8.10;6.45;;;23.30;53.30;;;;;;4980169;28;20054;-62
2022/10/29 02:43:53;;;;;;;8.02;6.20;;;23.30;53.30;;;;;;4980182;28;20494;-62
2022/10/29 02:46:21;;;;;;;8.05;6.05;;;23.30;53.30;;;;;;4979862;28;20484;-63
2022/10/29 02:48:49;;;;;;;7.28;5.82;;;23.20;53.30;;;;;;4979250;28;20138;-62
2022/10/29 02:51:17;;;;;;;8.38;6.40;;;23.20;53.30;;;;;;4980193;28;20047;-62
2022/10/29 02:53:44;;;;;;;8.50;6.45;;;23.20;53.40;;;;;;4980322;28;20427;-63
2022/10/29 02:56:11;;;;;;;9.00;6.88;;;23.20;53.30;;;;;;4979438;28;20046;-63
2022/10/29 02:58:38;;;;;;;7.68;6.28;;;23.20;53.30;;;;;;4980089;28;20403;-62
2022/10/29 03:01:05;;;;;;;7.50;6.10;;;23.20;53.30;;;;;;4978441;28;20053;-63
2022/10/29 03:03:32;;;;;;;9.82;6.55;;;23.20;53.30;;;;;;4961449;28;20069;-63
2022/10/29 03:05:59;;;;;;;7.53;6.40;;;23.30;53.30;;;;;;4979520;28;20078;-60
2022/10/29 03:08:26;;;;;;;7.30;6.38;;;23.20;53.20;;;;;;4979509;28;20054;-62
2022/10/29 03:10:54;;;;;;;8.80;6.93;;;23.20;53.30;;;;;;4979530;28;20047;-62
2022/10/29 03:13:21;;;;;;;7.47;5.90;;;23.30;53.30;;;;;;4979309;28;20058;-62
2022/10/29 03:15:48;;;;;;;6.85;5.72;;;23.20;53.20;;;;;;4979369;28;20047;-62
2022/10/29 03:18:15;;;;;;;7.72;6.22;;;23.30;53.20;;;;;;4979532;28;20412;-62
2022/10/29 03:20:44;;;;;;;6.93;6.22;;;23.20;53.10;;;;;;4979144;28;20498;-62
2022/10/29 03:23:11;;;;;;;6.97;5.55;;;23.20;53.10;;;;;;4979264;28;20051;-62
2022/10/29 03:25:38;;;;;;;7.88;6.47;;;23.20;53.10;;;;;;4979030;28;20043;-62
2022/10/29 03:28:05;;;;;;;6.80;5.78;;;23.30;53.10;;;;;;4977666;28;20062;-59
2022/10/29 03:30:32;;;;;;;7.80;5.95;;;23.30;53.10;;;;;;4979320;28;20073;-62
2022/10/29 03:32:59;;;;;;;7.93;6.65;;;23.30;53.10;;;;;;4979451;28;20051;-62
2022/10/29 03:35:26;;;;;;;8.73;6.18;;;23.30;53.10;;;;;;4978451;28;20057;-60
2022/10/29 03:37:53;;;;;;;7.90;6.40;;;23.30;53.00;;;;;;4977397;28;20055;-62
2022/10/29 03:40:20;;;;;;;7.82;5.72;;;23.30;53.00;;;;;;4977604;28;20046;-62
2022/10/29 03:42:48;;;;;;;6.18;5.50;;;23.30;53.00;;;;;;4978763;28;20050;-62
2022/10/29 03:45:15;;;;;;;7.47;6.13;;;23.30;53.00;;;;;;4978263;28;20053;-63
2022/10/29 03:47:42;;;;;;;6.60;5.90;;;23.20;53.00;;;;;;4978862;28;20066;-60
2022/10/29 03:50:10;;;;;;;7.15;6.10;;;23.30;53.00;;;;;;4977617;28;20055;-62
2022/10/29 03:52:37;;;;;;;7.85;6.55;;;23.20;53.00;;;;;;4977175;28;20042;-62
2022/10/29 03:55:05;;;;;;;7.47;6.28;;;23.30;53.00;;;;;;4978381;28;20055;-62
2022/10/29 03:57:32;;;;;;;7.72;6.13;;;23.30;53.00;;;;;;4978493;28;20050;-62
2022/10/29 04:00:03;;;;;;;8.68;6.78;;;23.20;53.00;;;;;;4978527;28;20050;-62
2022/10/29 04:02:30;;;;;;;6.90;5.60;;;23.20;53.00;;;;;;4978743;28;20106;-62
2022/10/29 04:04:58;;;;;;;7.30;5.78;;;23.20;53.00;;;;;;4979018;28;20055;-62
2022/10/29 04:07:25;;;;;;;7.00;5.55;;;23.20;53.00;;;;;;4978644;28;20051;-62
2022/10/29 04:09:52;;;;;;;7.60;5.50;;;23.20;53.00;;;;;;4978543;28;20051;-63
2022/10/29 04:12:19;;;;;;;7.20;5.88;;;23.20;53.00;;;;;;4978850;28;20105;-62
2022/10/29 04:14:47;;;;;;;7.05;5.95;;;23.20;53.00;;;;;;4977625;28;20056;-59
2022/10/29 04:17:14;;;;;;;7.88;6.40;;;23.20;53.00;;;;;;4978087;28;20070;-63
2022/10/29 04:19:41;;;;;;;6.68;5.90;;;23.30;53.00;;;;;;4978196;28;20105;-62
2022/10/29 04:22:08;;;;;;;6.13;5.50;;;23.20;53.00;;;;;;4977525;28;20053;-63
2022/10/29 04:24:55;;;;;;;7.90;5.90;;;23.20;53.00;;;;;;4977548;28;20380;-62
2022/10/29 04:27:42;;;;;;;7.18;5.68;;;23.20;53.00;;;;;;4977943;28;20061;-62
2022/10/29 04:30:30;;;;;;;6.25;5.65;;;23.20;53.00;;;;;;4978141;28;20047;-62
2022/10/29 04:32:58;;;;;;;9.55;6.95;;;23.20;53.00;;;;;;4976425;28;20054;-62
2022/10/29 04:35:27;;;;;;;7.75;6.15;;;23.20;53.00;;;;;;4978116;28;20161;-62
2022/10/29 04:37:54;;;;;;;7.80;6.57;;;23.20;52.90;;;;;;4977796;28;20051;-62
2022/10/29 04:40:26;;;;;;;7.95;6.47;;;23.20;52.80;;;;;;4978121;28;20503;-62
2022/10/29 04:42:53;;;;;;;7.90;6.40;;;23.20;52.70;;;;;;4977814;28;20055;-62
2022/10/29 04:45:20;;;;;;;7.88;6.30;;;23.20;52.60;;;;;;4976900;28;20051;-63
2022/10/29 04:47:47;;;;;;;6.78;5.82;;;23.20;52.60;;;;;;4977891;28;20148;-62
2022/10/29 04:50:14;;;;;;;8.05;6.50;;;23.20;52.60;;;;;;4977855;28;20054;-62
2022/10/29 04:52:41;;;;;;;7.90;6.38;;;23.20;52.60;;;;;;4976596;28;20530;-60
2022/10/29 04:55:08;;;;;;;9.63;6.75;;;23.20;52.50;;;;;;4976343;28;20050;-62
2022/10/29 04:57:35;;;;;;;8.25;6.32;;;23.20;52.50;;;;;;4977714;28;20057;-60
2022/10/29 05:00:03;;;;;;;6.57;5.88;;;23.20;52.50;;;;;;4976927;28;20086;-63
2022/10/29 05:02:30;;;;;;;6.55;5.82;;;23.20;52.40;;;;;;4977612;28;20518;-63
2022/10/29 05:04:57;;;;;;;6.78;5.65;;;23.20;52.40;;;;;;4977800;28;20105;-62
2022/10/29 05:07:24;;;;;;;6.00;5.40;;;23.20;52.30;;;;;;4977727;28;20381;-62
2022/10/29 05:09:51;;;;;;;6.95;5.80;;;23.20;52.20;;;;;;4976362;28;20047;-62
2022/10/29 05:12:18;;;;;;;7.57;6.03;;;23.20;52.20;;;;;;4977697;28;20054;-62
2022/10/29 05:14:45;;;;;;;7.15;6.03;;;23.20;52.10;;;;;;4977987;28;20129;-62
2022/10/29 05:17:12;;;;;;;7.00;5.63;;;23.10;52.00;;;;;;4977304;28;20415;-62
2022/10/29 05:19:39;;;;;;;7.78;6.03;;;23.10;52.00;;;;;;4977609;28;20055;-62
2022/10/29 05:22:06;;;;;;;6.82;6.13;;;23.10;51.90;;;;;;4976648;28;20051;-62
2022/10/29 05:24:33;;;;;;;7.00;6.07;;;23.20;52.00;;;;;;4976443;28;20487;-62
2022/10/29 05:27:01;;;;;;;6.78;6.07;;;23.10;51.90;;;;;;4978380;28;20042;-63
2022/10/29 05:29:28;;;;;;;6.95;5.70;;;23.10;51.90;;;;;;4981210;28;20411;-63
2022/10/29 05:31:55;;;;;;;5.78;5.18;;;23.10;51.90;;;;;;4981194;28;20046;-62
2022/10/29 05:34:22;;;;;;;6.20;5.60;;;23.10;51.80;;;;;;4981330;28;20050;-63
2022/10/29 05:36:49;;;;;;;6.68;5.40;;;23.10;51.80;;;;;;4981629;28;20170;-62
2022/10/29 05:39:16;;;;;;;6.65;5.35;;;23.10;51.70;;;;;;4980694;28;20051;-62
2022/10/29 05:41:45;;;;;;;6.45;5.75;;;23.10;51.60;;;;;;4980833;28;20141;-63
2022/10/29 05:44:12;;;;;;;6.72;5.97;;;23.10;51.60;;;;;;4981404;28;20415;-63
2022/10/29 05:46:39;;;;;;;5.93;5.30;;;23.10;51.60;;;;;;4979646;28;20047;-62
2022/10/29 05:49:07;;;;;;;6.22;5.25;;;23.10;51.60;;;;;;4980940;28;20117;-62
2022/10/29 05:51:34;;;;;;;6.82;5.63;;;23.00;51.50;;;;;;4963838;28;20047;-62
2022/10/29 05:54:02;;;;;;;5.90;5.30;;;23.00;51.50;;;;;;4979435;28;20055;-62
2022/10/29 05:56:28;;;;;;;7.13;5.97;;;23.00;51.40;;;;;;4980665;28;20047;-63
2022/10/29 05:58:55;;;;;;;5.88;5.25;;;23.10;51.50;;;;;;4980431;28;20054;-62
2022/10/29 06:01:23;;;;;;;6.00;5.25;;;23.00;51.40;;;;;;4980603;28;20046;-63
2022/10/29 06:03:50;;;;;;;5.07;4.57;;;23.00;51.40;;;;;;4980568;28;20059;-62
2022/10/29 06:06:22;;;;;;;6.25;5.55;;;23.00;51.30;;;;;;4980915;28;20054;-63
2022/10/29 06:08:49;;;;;;;5.97;4.82;;;23.00;51.30;;;;;;4980794;28;20051;-59
2022/10/29 06:11:16;;;;;;;6.38;5.45;;;23.00;51.20;;;;;;4980752;28;20047;-62
2022/10/29 06:13:43;;;;;;;5.38;4.88;;;23.00;51.20;;;;;;4980833;28;20395;-62
2022/10/29 06:16:10;;;;;;;6.47;5.60;;;23.00;51.20;;;;;;4980591;28;20074;-62
2022/10/29 06:18:37;;;;;;;7.28;5.57;;;23.00;51.20;;;;;;4979366;28;20551;-62
2022/10/29 06:21:04;;;;;;;6.28;5.15;;;23.00;51.10;;;;;;4980650;28;20061;-62
2022/10/29 06:23:31;;;;;;;5.28;4.80;;;23.00;51.00;;;;;;4979263;28;20058;-62
2022/10/29 06:26:00;;;;;;;6.13;5.53;;;23.00;51.10;;;;;;4980800;28;20057;-62
2022/10/29 06:28:27;;;;;;;6.50;5.63;;;23.00;51.00;;;;;;4980677;28;20058;-62
2022/10/29 06:31:00;;;;;;;7.95;5.35;;;23.00;51.00;;;;;;4980472;28;20055;-62
2022/10/29 06:33:27;;;;;;;5.80;5.20;;;23.10;51.00;;;;;;4980724;28;20102;-63
2022/10/29 06:35:59;;;;;;;5.90;5.30;;;23.10;50.90;;;;;;4979299;28;20069;-62
2022/10/29 06:38:26;;;;;;;7.00;5.97;;;23.10;50.90;;;;;;4980254;28;20053;-62
2022/10/29 06:40:53;;;;;;;5.93;5.32;;;23.10;50.80;;;;;;4979412;28;20051;-62
2022/10/29 06:43:20;;;;;;;6.00;5.40;;;23.10;50.80;;;;;;4963247;28;20058;-62
2022/10/29 06:45:48;;;;;;;5.60;5.00;;;23.10;50.80;;;;;;4979938;28;20061;-62
2022/10/29 06:48:16;;;;;;;5.88;5.10;;;23.10;50.70;;;;;;4980787;28;20451;-62
2022/10/29 06:50:48;;;;;;;5.90;4.75;;;23.10;50.70;;;;;;4980127;28;20050;-63
2022/10/29 06:53:16;;;;;;;6.32;5.53;;;23.10;50.70;;;;;;4979954;28;20050;-62
2022/10/29 06:55:43;;;;;;;6.03;5.18;;;23.10;50.60;;;;;;4980288;28;20058;-63
2022/10/29 06:58:13;;;;;;;5.57;5.07;;;23.10;50.50;;;;;;4980902;28;20043;-62
2022/10/29 07:00:41;;;;;;;6.22;4.95;;;23.10;50.50;;;;;;4979551;28;20051;-63
2022/10/29 07:03:12;;;;;;;5.57;5.07;;;23.10;50.50;;;;;;4978831;28;20121;-62
2022/10/29 07:05:39;;;;;;;5.88;5.10;;;23.10;50.40;;;;;;4978642;28;20050;-62
2022/10/29 07:08:06;;;;;;;6.93;6.22;;;23.10;50.40;;;;;;4979799;28;20526;-62
2022/10/29 07:10:34;;;;;;;6.35;5.75;;;23.10;50.30;;;;;;4979562;28;20066;-62
2022/10/29 07:13:01;;;;;;;5.40;4.90;;;23.10;50.30;;;;;;4979942;28;20051;-62
2022/10/29 07:15:29;;;;;;;5.93;5.38;;;23.20;50.30;;;;;;4978512;28;20055;-62
2022/10/29 07:18:02;;;;;;;5.95;5.35;;;23.20;50.30;;;;;;4980134;28;20085;-62
2022/10/29 07:20:32;;;;;;;6.25;5.65;;;23.10;50.20;;;;;;4979443;28;20061;-62
2022/10/29 07:23:00;;;;;;;6.68;5.65;;;23.20;50.10;;;;;;4979687;28;20415;-62
2022/10/29 07:25:29;;;;;;;5.78;5.13;;;23.20;50.10;;;;;;4979249;28;20057;-62
2022/10/29 07:28:04;;;;;;;6.10;5.50;;;23.20;50.10;;;;;;4979841;28;20405;-62
2022/10/29 07:30:32;;;;;;;6.15;5.55;;;23.20;50.10;;;;;;4979025;28;20047;-62
2022/10/29 07:32:59;;;;;;;5.32;4.82;;;23.30;50.10;;;;;;4979562;28;20062;-62
2022/10/29 07:35:26;;;;;;;5.75;5.15;;;23.30;50.00;;;;;;4979010;28;20057;-62
2022/10/29 07:38:01;;;;;;;6.18;5.57;;;23.30;50.00;;;;;;4979068;28;20042;-62
2022/10/29 07:40:37;;;;;;;6.05;5.45;;;23.30;50.50;;;;;;4978470;28;20137;-62
2022/10/29 07:43:05;;;;;;;5.90;5.30;;;23.30;49.90;;;;;;4978239;28;20384;-62
2022/10/29 07:45:32;;;;;;;5.88;5.28;;;23.30;49.80;;;;;;4978961;28;20053;-63
2022/10/29 07:48:01;;;;;;;6.97;6.10;;;23.30;49.80;;;;;;4979662;28;20125;-62
2022/10/29 07:50:30;;;;;;;6.63;5.78;;;23.30;49.80;;;;;;4977095;28;20478;-62
2022/10/29 07:53:01;;;;;;;5.50;5.00;;;23.30;49.70;;;;;;4979098;28;20055;-62
2022/10/29 07:55:28;;;;;;;6.53;5.75;;;23.40;49.70;;;;;;4979093;28;20055;-62
2022/10/29 07:58:03;;;;;;;5.88;5.30;;;23.40;49.70;;;;;;4979086;28;20058;-62
2022/10/29 08:00:32;;;;;;;6.53;5.85;;;23.40;49.70;;;;;;4979022;28;20061;-62
2022/10/29 08:02:59;;;;;;;6.60;5.50;;;23.40;49.60;;;;;;4978963;28;20050;-62
2022/10/29 08:05:27;;;;;;;7.43;6.40;;;23.50;49.50;;;;;;4978872;28;20055;-62
2022/10/29 08:07:55;;;;;;;6.03;5.30;;;23.50;49.40;;;;;;4978863;28;20066;-63
2022/10/29 08:10:24;;;;;;;6.35;5.65;;;23.60;49.30;;;;;;4978262;28;20058;-59
2022/10/29 08:12:56;;;;;;;6.13;5.53;;;23.60;49.20;;;;;;4978684;28;20054;-63
2022/10/29 08:15:25;;;;;;;6.20;5.43;;;23.60;49.20;;;;;;4978227;28;20495;-62
2022/10/29 08:17:53;;;;;;;6.43;5.38;;;23.60;49.10;;;;;;4978235;28;20133;-62
2022/10/29 08:20:21;;;;;;;6.22;5.63;;;23.60;49.10;;;;;;4978356;28;20055;-62
2022/10/29 08:22:48;;;;;;;6.13;5.10;;;23.60;49.50;;;;;;4977388;28;20081;-63
2022/10/29 08:25:16;;;;;;;6.40;5.75;;;23.70;48.90;;;;;;4978299;28;20141;-62
2022/10/29 08:27:43;;;;;;;6.70;6.00;;;23.70;48.90;;;;;;4978013;28;20059;-63
2022/10/29 08:30:13;;;;;;;6.57;5.60;;;23.70;48.90;;;;;;4978070;28;20484;-62
2022/10/29 08:32:46;;;;;;;8.63;5.90;;;23.70;48.90;;;;;;4978525;28;20046;-62
2022/10/29 08:35:14;;;;;;;6.57;5.88;;;23.70;48.90;;;;;;4978346;28;20046;-62
2022/10/29 08:37:44;;;;;;;5.97;5.38;;;23.70;48.90;;;;;;4978218;28;20047;-62
2022/10/29 08:40:26;;;;;;;6.57;5.88;;;23.70;48.90;;;;;;4978777;28;20050;-63
2022/10/29 08:43:23;;;;;;;7.60;6.43;;;23.80;48.90;;;;;;4978100;28;20050;-62
2022/10/29 08:45:53;;;;;;;7.43;6.47;;;23.80;48.90;;;;;;4964027;28;20407;-63
2022/10/29 08:48:29;;;;;;;;;;;23.80;48.80;;;;;;4979271;28;20063;-62
2022/10/29 08:51:31;;;;;;;10.25;6.28;;;23.80;48.80;;;;;;4977477;28;19922;-63
2022/10/29 08:53:58;;;;;;;7.00;6.28;;;23.80;48.80;;;;;;4977910;28;20050;-62
2022/10/29 08:56:52;;;;;;;7.15;5.78;;;23.90;48.70;;;;;;4977930;28;20047;-62
2022/10/29 08:59:22;;;;;;;6.22;5.63;;;23.90;48.60;;;;;;4977975;28;20049;-62
2022/10/29 09:01:52;;;;;;;7.10;6.38;;;23.90;48.50;;;;;;4978884;28;20057;-62
2022/10/29 09:04:24;;;;;;;7.35;6.13;;;23.90;48.40;;;;;;4982318;28;20055;-62
2022/10/29 09:07:27;;;;;;;6.53;5.65;;;23.90;48.20;;;;;;4982227;28;20047;-62
2022/10/29 09:10:30;;;;;;;7.07;6.32;;;24.00;48.10;;;;;;4980879;28;20047;-62
2022/10/29 09:13:25;;;;;;;6.80;6.07;;;24.00;48.00;;;;;;4982009;28;20460;-62
2022/10/29 09:16:05;;;;;;;7.75;6.05;;;24.10;47.90;;;;;;4980950;28;20061;-63
2022/10/29 09:18:41;;;;;;;;;;;24.10;47.80;;;;;;4982433;28;20057;-62
2022/10/29 09:21:24;;;;;;;7.10;6.28;;;24.10;47.70;;;;;;4980350;28;20009;-62
2022/10/29 09:24:10;;;;;;;7.43;6.28;;;24.10;47.70;;;;;;4981433;28;20043;-62
2022/10/29 09:26:56;;;;;;;7.18;6.47;;;24.10;47.60;;;;;;4981212;28;20055;-63
2022/10/29 09:29:51;;;;;;;7.15;6.10;;;24.20;47.60;;;;;;4982119;28;20043;-62
2022/10/29 09:32:25;;;;;;;8.55;6.28;;;24.20;47.50;;;;;;4981424;28;20043;-62
2022/10/29 09:34:59;;;;;;;8.05;6.40;;;24.20;47.50;;;;;;4981581;28;20046;-62
2022/10/29 09:37:47;;;;;;;8.00;6.53;;;24.20;47.50;;;;;;4981573;28;20055;-62
2022/10/29 09:40:30;;;;;;;9.10;6.72;;;24.20;47.50;;;;;;4981476;28;20053;-62
2022/10/29 09:43:07;;;;;;;7.45;6.60;;;24.20;47.50;;;;;;4981326;28;20047;-62
2022/10/29 09:45:59;;;;;;;8.02;6.80;;;24.30;47.50;;;;;;4979876;28;20047;-63
2022/10/29 09:48:33;;;;;;;8.30;6.75;;;24.30;47.50;;;;;;4980833;28;20059;-62
2022/10/29 09:51:30;;;;;;;8.13;6.60;;;24.30;47.50;;;;;;4981401;28;20042;-63
2022/10/29 09:53:57;;;;;;;7.18;6.20;;;24.20;47.40;;;;;;4981157;28;20510;-63
2022/10/29 09:56:25;;;;;;;8.15;6.35;;;24.30;47.40;;;;;;4981147;28;20069;-62
2022/10/29 09:58:57;;;;;;;9.13;7.22;;;24.30;47.40;;;;;;4980252;28;20046;-62
2022/10/29 10:01:24;;;;;;;8.15;6.70;;;24.30;47.40;;;;;;4979587;28;20061;-63
2022/10/29 10:03:58;;;;;;;8.68;7.50;;;24.30;47.40;;;;;;4979626;28;20484;-62
2022/10/29 10:07:04;;;;;;;8.48;6.93;;;24.30;47.40;;;;;;4981087;28;20054;-62
2022/10/29 10:09:58;;;;;;;7.68;6.88;;;24.30;47.40;;;;;;4980677;28;20054;-62
2022/10/29 10:12:47;;;;;;;7.50;6.45;;;24.30;47.40;;;;;;4980550;28;20116;-63
2022/10/29 10:15:35;;;;;;;8.25;7.03;;;24.30;47.40;;;;;;4979689;28;20057;-62
2022/10/29 10:18:05;;;;;;;7.57;6.63;;;24.30;47.30;;;;;;4981668;28;20051;-62
2022/10/29 10:20:36;;;;;;;;;;;24.30;47.30;;;;;;4981119;28;20054;-62
2022/10/29 10:23:25;;;;;;;8.25;7.00;;;24.40;47.30;;;;;;4980864;28;19962;-62
2022/10/29 10:25:55;;;;;;;8.25;6.82;;;24.40;47.20;;;;;;4980376;28;20054;-63
2022/10/29 10:28:34;;;;;;;8.15;6.95;;;24.40;47.20;;;;;;4980694;28;20050;-62
2022/10/29 10:31:14;;;;;;;8.45;7.05;;;24.50;47.10;;;;;;4980742;28;20057;-62
2022/10/29 10:33:53;;;;;;;7.57;6.75;;;24.50;47.20;;;;;;4980700;28;20540;-62
2022/10/29 10:36:23;;;;;;;9.23;7.20;;;24.50;47.10;;;;;;4980212;28;20509;-63
2022/10/29 10:38:54;;;;;;;9.18;7.65;;;24.50;47.10;;;;;;4980368;28;20476;-62
2022/10/29 10:41:29;;;;;;;9.23;7.28;;;24.50;47.10;;;;;;4980025;28;20054;-62
2022/10/29 10:44:02;;;;;;;7.25;6.47;;;24.50;47.10;;;;;;4980328;28;20061;-62
2022/10/29 10:46:37;;;;;;;9.88;7.35;;;24.50;47.10;;;;;;4979908;28;20396;-62
2022/10/29 10:49:11;;;;;;;8.50;7.57;;;24.50;47.10;;;;;;4980283;28;20051;-62
2022/10/29 10:51:43;;;;;;;8.68;7.28;;;24.50;47.20;;;;;;4980354;28;20102;-62
2022/10/29 10:54:35;;;;;;;8.40;7.50;;;24.40;47.20;;;;;;4980083;28;20051;-62
2022/10/29 10:57:22;;;;;;;8.32;6.95;;;24.50;47.20;;;;;;4980213;28;20051;-62
2022/10/29 11:00:08;;;;;;;10.10;7.60;;;24.50;47.20;;;;;;4980157;28;20055;-63
2022/10/29 11:03:02;;;;;;;8.35;7.50;;;24.50;47.10;;;;;;4980199;28;20057;-62
2022/10/29 11:05:54;;;;;;;8.38;7.10;;;24.50;47.10;;;;;;4966081;28;20057;-62
2022/10/29 11:08:31;;;;;;;8.25;7.35;;;24.50;47.10;;;;;;4979866;28;20412;-62
2022/10/29 11:11:09;;;;;;;7.80;7.00;;;24.50;47.20;;;;;;4979958;28;20051;-62
2022/10/29 11:13:40;;;;;;;8.38;7.18;;;24.50;47.10;;;;;;4980015;28;20484;-62
2022/10/29 11:16:36;;;;;;;8.75;7.05;;;24.50;47.10;;;;;;4979666;28;20063;-62
2022/10/29 11:19:41;;;;;;;7.50;6.80;;;24.50;47.00;;;;;;4979648;28;20050;-62
2022/10/29 11:22:37;;;;;;;7.80;6.28;;;24.60;47.00;;;;;;4979923;28;20058;-62
2022/10/29 11:25:28;;;;;;;8.57;7.55;;;24.60;47.00;;;;;;4978675;28;20058;-62
2022/10/29 11:28:22;;;;;;;7.13;6.38;;;24.60;47.00;;;;;;4979297;28;20051;-62
2022/10/29 11:30:55;;;;;;;8.15;7.30;;;24.60;46.90;;;;;;4979109;28;20054;-63
2022/10/29 11:33:42;;;;;;;7.40;6.68;;;24.60;46.90;;;;;;4979393;28;20050;-63
2022/10/29 11:36:21;;;;;;;7.85;6.97;;;24.60;46.90;;;;;;4978993;28;20050;-62
2022/10/29 11:39:02;;;;;;;8.68;7.78;;;24.60;46.90;;;;;;4979357;28;20373;-63
2022/10/29 11:41:53;;;;;;;7.28;6.55;;;24.60;46.90;;;;;;4979109;28;20050;-62
2022/10/29 11:44:21;;;;;;;8.70;7.18;;;24.70;46.90;;;;;;4979084;28;20053;-62
2022/10/29 11:47:27;;;;;;;7.65;6.90;;;24.60;46.90;;;;;;4978862;28;20061;-62
2022/10/29 11:50:19;;;;;;;8.35;6.80;;;24.60;46.90;;;;;;4978108;28;20054;-62
2022/10/29 11:53:09;;;;;;;8.27;7.03;;;24.70;46.90;;;;;;4979195;28;20055;-62
2022/10/29 11:55:54;;;;;;;8.93;7.55;;;24.70;46.90;;;;;;4978900;28;20059;-62
2022/10/29 11:58:33;;;;;;;9.52;7.18;;;24.70;47.00;;;;;;4979475;28;20050;-63
2022/10/29 12:01:31;;;;;;;7.88;7.07;;;24.70;47.50;;;;;;4978596;28;20097;-63
2022/10/29 12:04:25;;;;;;;7.90;6.78;;;24.70;47.00;;;;;;4978704;28;20050;-63
2022/10/29 12:07:13;;;;;;;7.88;7.07;;;24.70;47.00;;;;;;4977602;28;20051;-63
2022/10/29 12:10:09;;;;;;;8.27;7.47;;;24.70;47.00;;;;;;4978788;28;20058;-63
2022/10/29 12:12:52;;;;;;;7.75;6.90;;;24.70;47.00;;;;;;4977871;28;20077;-63
2022/10/29 12:15:25;;;;;;;8.10;7.13;;;24.70;47.10;;;;;;4978643;28;20070;-63
2022/10/29 12:18:18;;;;;;;7.72;6.85;;;24.70;47.10;;;;;;4978638;28;20050;-63
2022/10/29 12:21:08;;;;;;;7.47;6.78;;;24.70;47.10;;;;;;4977507;28;20105;-63
2022/10/29 12:24:13;;;;;;;8.00;7.25;;;24.70;47.10;;;;;;4978503;28;20055;-62
2022/10/29 12:26:57;;;;;;;8.88;7.43;;;24.70;47.10;;;;;;4978325;28;20043;-63
2022/10/29 12:29:47;;;;;;;9.15;8.02;;;24.70;47.10;;;;;;4979022;28;20061;-63
2022/10/29 12:32:27;;;;;;;8.05;7.07;;;24.70;47.10;;;;;;4978330;28;20046;-63
2022/10/29 12:35:04;;;;;;;10.07;8.25;;;24.70;47.10;;;;;;4977991;28;20060;-63
2022/10/29 12:37:46;;;;;;;8.45;7.57;;;24.70;47.10;;;;;;4978698;28;20118;-62
2022/10/29 12:40:25;;;;;;;9.18;8.18;;;24.70;47.60;;;;;;4976956;28;20050;-63
2022/10/29 12:42:54;;;;;;;8.45;7.13;;;24.70;47.10;;;;;;4978152;28;20049;-63
2022/10/29 12:45:46;;;;;;;9.60;8.35;;;24.70;47.00;;;;;;4976801;28;20051;-62
2022/10/29 12:48:59;;;;;;;8.95;7.97;;;24.70;47.10;;;;;;4978625;28;20047;-63
2022/10/29 12:51:44;;;;;;;9.05;8.15;;;24.70;47.10;;;;;;4977132;28;20054;-62
2022/10/29 12:54:36;;;;;;;10.00;8.15;;;24.70;47.10;;;;;;4977941;28;20555;-63
2022/10/29 12:57:05;;;;;;;10.60;8.43;;;24.70;47.10;;;;;;4976824;28;20054;-62
2022/10/29 12:59:35;;;;;;;8.43;7.32;;;24.70;47.10;;;;;;4977503;28;20450;-62
2022/10/29 13:02:24;;;;;;;10.23;8.25;;;24.70;47.10;;;;;;4978215;28;20411;-63
2022/10/29 13:05:12;;;;;;;8.98;8.05;;;24.70;47.20;;;;;;4976968;28;20141;-62
2022/10/29 13:08:13;;;;;;;9.23;8.05;;;24.70;47.20;;;;;;4976824;28;20047;-62
2022/10/29 13:10:52;;;;;;;11.60;8.38;;;24.70;47.20;;;;;;4977259;28;20047;-63
2022/10/29 13:13:36;;;;;;;9.23;8.27;;;24.70;47.20;;;;;;4977820;28;20049;-63
2022/10/29 13:16:12;;;;;;;10.02;8.45;;;24.70;47.20;;;;;;4977706;28;20055;-63
2022/10/29 13:19:01;;;;;;;11.13;8.95;;;24.70;47.20;;;;;;4978081;28;20051;-62
2022/10/29 13:21:56;;;;;;;9.10;8.20;;;24.70;47.20;;;;;;4976448;28;20058;-62
2022/10/29 13:24:24;;;;;;;10.00;8.57;;;24.70;47.30;;;;;;4978132;28;20051;-62
2022/10/29 13:27:22;;;;;;;9.98;8.98;;;24.70;47.30;;;;;;4961125;28;20106;-62
2022/10/29 13:30:10;;;;;;;10.43;9.07;;;24.70;47.30;;;;;;4977863;28;20500;-62